createdAt,value
2024-02-11T00:02:13.985Z,98711.81
2024-02-11T00:04:42.598Z,98720.75
2024-02-11T00:07:09.577Z,98722.66
2024-02-11T00:09:36.252Z,98722.66
2024-02-11T00:12:02.762Z,98719.16
2024-02-11T00:14:29.260Z,98711.03
2024-02-11T00:17:01.332Z,98713.25
2024-02-11T00:19:28.647Z,98717.22
2024-02-11T00:21:55.191Z,98706.41
2024-02-11T00:24:24.769Z,98709.44
2024-02-11T00:26:51.331Z,98697.81
2024-02-11T00:29:19.049Z,98709.44
2024-02-11T00:31:45.684Z,98704.03
2024-02-11T00:34:12.415Z,98697.03
2024-02-11T00:36:42.069Z,98692.72
2024-02-11T00:39:08.794Z,98690.00
2024-02-11T00:41:40.437Z,98696.53
2024-02-11T00:44:09.956Z,98696.53
2024-02-11T00:46:36.692Z,98692.25
2024-02-11T00:49:04.961Z,98693.34
2024-02-11T00:51:31.789Z,98698.78
2024-02-11T00:53:58.791Z,98692.88
2024-02-11T00:56:25.383Z,98694.47
2024-02-11T00:58:52.002Z,98692.88
2024-02-11T01:01:18.583Z,98693.66
2024-02-11T01:03:45.104Z,98694.47
2024-02-11T01:06:14.570Z,98692.88
2024-02-11T01:08:41.089Z,98698.28
2024-02-11T01:11:09.701Z,98704.81
2024-02-11T01:13:36.264Z,98692.06
2024-02-11T01:16:02.760Z,98692.88
2024-02-11T01:18:29.278Z,98703.72
2024-02-11T01:20:56.714Z,98696.69
2024-02-11T01:23:23.208Z,98696.69
2024-02-11T01:25:51.027Z,98695.88
2024-02-11T01:28:17.504Z,98699.41
2024-02-11T01:30:46.486Z,98698.13
2024-02-11T01:33:13.165Z,98698.94
2024-02-11T01:35:43.011Z,98688.09
2024-02-11T01:38:11.070Z,98688.09
2024-02-11T01:40:37.706Z,98698.94
2024-02-11T01:43:08.930Z,98697.34
2024-02-11T01:45:38.298Z,98701.16
2024-02-11T01:48:05.796Z,98693.34
2024-02-11T01:50:37.407Z,98704.16
2024-02-11T01:53:05.947Z,98692.56
2024-02-11T01:55:34.406Z,98691.75
2024-02-11T01:58:02.101Z,98683.94
2024-02-11T02:00:29.149Z,98687.78
2024-02-11T02:02:56.670Z,98697.78
2024-02-11T02:05:23.421Z,98695.41
2024-02-11T02:07:54.582Z,98700.84
2024-02-11T02:10:21.566Z,98697.00
2024-02-11T02:12:48.092Z,98697.00
2024-02-11T02:15:14.786Z,98692.72
2024-02-11T02:17:46.016Z,98690.78
2024-02-11T02:20:13.826Z,98695.41
2024-02-11T02:22:42.765Z,98690.00
2024-02-11T02:25:09.641Z,98690.78
2024-02-11T02:27:39.300Z,98689.19
2024-02-11T02:30:06.835Z,98686.19
2024-02-11T02:32:33.381Z,98686.19
2024-02-11T02:35:00.143Z,98679.97
2024-02-11T02:37:26.725Z,98679.97
2024-02-11T02:39:53.253Z,98676.47
2024-02-11T02:42:21.332Z,98679.66
2024-02-11T02:44:48.110Z,98675.34
2024-02-11T02:47:14.986Z,98671.84
2024-02-11T02:49:43.999Z,98663.72
2024-02-11T02:52:10.582Z,98660.69
2024-02-11T02:54:37.014Z,98655.28
2024-02-11T02:57:03.717Z,98653.69
2024-02-11T02:59:30.174Z,98655.59
2024-02-11T03:02:03.162Z,98655.59
2024-02-11T03:04:29.948Z,98650.97
2024-02-11T03:06:57.071Z,98657.50
2024-02-11T03:09:25.429Z,98659.75
2024-02-11T03:11:51.950Z,98659.75
2024-02-11T03:14:19.776Z,98654.63
2024-02-11T03:16:48.168Z,98659.75
2024-02-11T03:19:16.068Z,98651.94
2024-02-11T03:21:42.999Z,98651.16
2024-02-11T03:24:09.538Z,98652.25
2024-02-11T03:26:36.043Z,98648.75
2024-02-11T03:29:02.734Z,98652.25
2024-02-11T03:31:29.511Z,98653.38
2024-02-11T03:33:56.340Z,98651.78
2024-02-11T03:36:22.932Z,98648.25
2024-02-11T03:38:49.370Z,98642.06
2024-02-11T03:41:17.686Z,98646.38
2024-02-11T03:43:44.286Z,98640.94
2024-02-11T03:46:10.923Z,98645.56
2024-02-11T03:48:37.614Z,98640.94
2024-02-11T03:51:05.333Z,98646.38
2024-02-11T03:53:32.337Z,98650.97
2024-02-11T03:55:58.872Z,98655.59
2024-02-11T03:58:25.365Z,98653.19
2024-02-11T04:00:52.166Z,98663.25
2024-02-11T04:03:21.723Z,98657.84
2024-02-11T04:05:50.080Z,98660.06
2024-02-11T04:08:17.099Z,98661.66
2024-02-11T04:10:43.946Z,98662.75
2024-02-11T04:13:10.805Z,98658.47
2024-02-11T04:15:39.095Z,98655.28
2024-02-11T04:18:11.440Z,98667.69
2024-02-11T04:20:39.153Z,98663.88
2024-02-11T04:23:09.289Z,98662.28
2024-02-11T04:25:37.440Z,98667.69
2024-02-11T04:28:09.218Z,98662.28
2024-02-11T04:30:39.734Z,98662.28
2024-02-11T04:33:08.297Z,98659.88
2024-02-11T04:35:36.285Z,98656.88
2024-02-11T04:38:09.289Z,98654.47
2024-02-11T04:40:36.004Z,98660.69
2024-02-11T04:43:03.581Z,98660.69
2024-02-11T04:45:30.093Z,98663.41
2024-02-11T04:48:00.261Z,98656.06
2024-02-11T04:50:29.375Z,98656.88
2024-02-11T04:52:58.231Z,98657.97
2024-02-11T04:55:28.691Z,98660.69
2024-02-11T04:58:05.927Z,98659.56
2024-02-11T05:00:35.243Z,98656.88
2024-02-11T05:03:07.871Z,98670.06
2024-02-11T05:05:38.759Z,98663.88
2024-02-11T05:08:09.179Z,98659.56
2024-02-11T05:10:40.946Z,98665.78
2024-02-11T05:13:09.061Z,98667.69
2024-02-11T05:15:41.596Z,98660.69
2024-02-11T05:18:12.747Z,98664.66
2024-02-11T05:20:40.346Z,98667.69
2024-02-11T05:23:10.493Z,98663.06
2024-02-11T05:25:39.704Z,98676.94
2024-02-11T05:28:10.163Z,98669.94
2024-02-11T05:30:39.573Z,98676.94
2024-02-11T05:33:09.719Z,98677.72
2024-02-11T05:35:38.366Z,98673.13
2024-02-11T05:38:07.291Z,98685.06
2024-02-11T05:40:38.169Z,98676.94
2024-02-11T05:43:07.580Z,98672.63
2024-02-11T05:45:34.235Z,98675.00
2024-02-11T05:48:00.816Z,98676.94
2024-02-11T05:50:27.909Z,98674.22
2024-02-11T05:52:55.888Z,98677.72
2024-02-11T05:55:23.361Z,98678.53
2024-02-11T05:57:51.453Z,98684.72
2024-02-11T06:00:23.200Z,98681.22
2024-02-11T06:02:51.168Z,98681.22
2024-02-11T06:05:19.027Z,98683.13
2024-02-11T06:07:47.350Z,98689.34
2024-02-11T06:10:14.837Z,98684.72
2024-02-11T06:12:42.172Z,98690.13
2024-02-11T06:15:10.595Z,98694.75
2024-02-11T06:17:41.612Z,98692.53
2024-02-11T06:20:20.495Z,98697.94
2024-02-11T06:22:48.974Z,98708.78
2024-02-11T06:25:17.338Z,98703.38
2024-02-11T06:27:44.110Z,98708.78
2024-02-11T06:30:14.543Z,98700.97
2024-02-11T06:32:46.957Z,98711.00
2024-02-11T06:35:14.989Z,98712.13
2024-02-11T06:37:44.155Z,98714.81
2024-02-11T06:40:18.995Z,98728.66
2024-02-11T06:42:49.361Z,98739.19
2024-02-11T06:45:17.911Z,98736.78
2024-02-11T06:47:45.127Z,98744.91
2024-02-11T06:50:16.596Z,98757.03
2024-02-11T06:52:44.969Z,98751.75
2024-02-11T06:55:13.272Z,98759.38
2024-02-11T06:57:44.232Z,98773.69
2024-02-11T07:00:12.260Z,98775.13
2024-02-11T07:02:40.375Z,98788.97
2024-02-11T07:05:11.362Z,98796.59
2024-02-11T07:07:38.519Z,98797.22
2024-02-11T07:10:05.676Z,98792.13
2024-02-11T07:12:32.242Z,98810.88
2024-02-11T07:14:58.855Z,98812.47
2024-02-11T07:17:25.775Z,98818.84
2024-02-11T07:19:53.996Z,98826.28
2024-02-11T07:22:21.178Z,98826.41
2024-02-11T07:24:48.614Z,98828.63
2024-02-11T07:27:15.770Z,98838.66
2024-02-11T07:29:44.048Z,98845.97
2024-02-11T07:32:11.819Z,98857.41
2024-02-11T07:34:41.050Z,98855.63
2024-02-11T07:37:07.895Z,98866.75
2024-02-11T07:39:34.475Z,98865.97
2024-02-11T07:42:01.990Z,98874.38
2024-02-11T07:44:28.782Z,98874.69
2024-02-11T07:46:55.257Z,98882.59
2024-02-11T07:49:24.919Z,98888.34
2024-02-11T07:51:52.536Z,98892.16
2024-02-11T07:54:20.414Z,98894.03
2024-02-11T07:56:47.384Z,98911.88
2024-02-11T07:59:14.092Z,98922.69
2024-02-11T08:01:40.927Z,98914.88
2024-02-11T08:04:07.776Z,98927.31
2024-02-11T08:06:35.574Z,98929.84
2024-02-11T08:09:03.610Z,98930.13
2024-02-11T08:11:34.427Z,98936.97
2024-02-11T08:14:01.028Z,98935.97
2024-02-11T08:16:27.816Z,98939.16
2024-02-11T08:18:57.735Z,98941.56
2024-02-11T08:21:26.540Z,98947.78
2024-02-11T08:23:53.273Z,98951.59
2024-02-11T08:26:21.633Z,98951.59
2024-02-11T08:28:48.328Z,98954.78
2024-02-11T08:31:15.137Z,98953.19
2024-02-11T08:33:47.377Z,98945.34
2024-02-11T08:36:15.150Z,98951.59
2024-02-11T08:38:41.830Z,98955.38
2024-02-11T08:41:08.895Z,98959.97
2024-02-11T08:43:35.643Z,98958.38
2024-02-11T08:46:05.341Z,98968.41
2024-02-11T08:48:32.950Z,98982.22
2024-02-11T08:51:01.513Z,98987.03
2024-02-11T08:53:30.160Z,98994.03
2024-02-11T08:55:59.535Z,98995.44
2024-02-11T08:58:26.691Z,99003.25
2024-02-11T09:00:53.605Z,99009.47
2024-02-11T09:03:20.226Z,99012.94
2024-02-11T09:05:48.031Z,99018.34
2024-02-11T09:08:16.739Z,99024.38
2024-02-11T09:10:44.573Z,99025.91
2024-02-11T09:13:12.044Z,99032.09
2024-02-11T09:15:38.936Z,99031.31
2024-02-11T09:18:07.351Z,99031.81
2024-02-11T09:20:36.892Z,99033.91
2024-02-11T09:23:04.292Z,99031.50
2024-02-11T09:25:33.115Z,99030.88
2024-02-11T09:27:59.786Z,99032.19
2024-02-11T09:30:26.542Z,99036.50
2024-02-11T09:32:53.276Z,99040.31
2024-02-11T09:35:23.704Z,99036.50
2024-02-11T09:38:00.327Z,99040.09
2024-02-11T09:40:28.005Z,99048.41
2024-02-11T09:42:56.943Z,99049.69
2024-02-11T09:45:26.044Z,99058.13
2024-02-11T09:47:54.161Z,99059.22
2024-02-11T09:50:23.418Z,99060.84
2024-02-11T09:52:51.399Z,99067.84
2024-02-11T09:55:21.964Z,99067.03
2024-02-11T09:57:49.255Z,99070.53
2024-02-11T10:00:17.262Z,99064.13
2024-02-11T10:02:45.791Z,99071.66
2024-02-11T10:05:13.523Z,99062.94
2024-02-11T10:07:45.466Z,99058.13
2024-02-11T10:10:17.136Z,99052.13
2024-02-11T10:12:44.453Z,99050.50
2024-02-11T10:15:18.190Z,99051.50
2024-02-11T10:17:46.370Z,99068.69
2024-02-11T10:20:13.938Z,99074.09
2024-02-11T10:22:40.745Z,99071.91
2024-02-11T10:25:10.375Z,99078.13
2024-02-11T10:27:37.656Z,99076.72
2024-02-11T10:30:14.048Z,99075.59
2024-02-11T10:32:41.241Z,99077.09
2024-02-11T10:35:08.328Z,99082.72
2024-02-11T10:37:47.360Z,99088.13
2024-02-11T10:40:14.653Z,99086.19
2024-02-11T10:42:42.630Z,99089.13
2024-02-11T10:45:11.211Z,99093.09
2024-02-11T10:47:38.270Z,99093.09
2024-02-11T10:50:05.097Z,99095.31
2024-02-11T10:52:43.866Z,99106.63
2024-02-11T10:55:12.291Z,99102.31
2024-02-11T10:57:50.433Z,99105.22
2024-02-11T11:00:22.187Z,99102.22
2024-02-11T11:02:52.117Z,99103.81
2024-02-11T11:05:21.449Z,99108.63
2024-02-11T11:07:50.427Z,99103.69
2024-02-11T11:10:19.637Z,99099.41
2024-02-11T11:12:48.028Z,99110.72
2024-02-11T11:15:14.750Z,99109.13
2024-02-11T11:17:45.671Z,99120.44
2024-02-11T11:20:15.431Z,99119.31
2024-02-11T11:22:42.003Z,99122.13
2024-02-11T11:25:15.325Z,99125.34
2024-02-11T11:27:41.879Z,99117.53
2024-02-11T11:30:10.675Z,99125.06
2024-02-11T11:32:41.921Z,99118.53
2024-02-11T11:35:08.946Z,99111.53
2024-02-11T11:37:35.480Z,99107.72
2024-02-11T11:40:03.357Z,99112.31
2024-02-11T11:42:29.913Z,99121.53
2024-02-11T11:45:07.297Z,99122.34
2024-02-11T11:47:38.319Z,99114.34
2024-02-11T11:50:10.086Z,99108.72
2024-02-11T11:52:37.016Z,99116.06
2024-02-11T11:55:06.381Z,99118.44
2024-02-11T11:57:34.450Z,99121.66
2024-02-11T12:00:01.871Z,99115.13
2024-02-11T12:02:31.030Z,99116.22
2024-02-11T12:04:57.888Z,99109.22
2024-02-11T12:07:25.653Z,99097.00
2024-02-11T12:09:53.208Z,99108.00
2024-02-11T12:12:21.168Z,99116.63
2024-02-11T12:14:48.154Z,99117.22
2024-02-11T12:17:14.842Z,99119.44
2024-02-11T12:19:45.392Z,99111.16
2024-02-11T12:22:13.097Z,99110.03
2024-02-11T12:24:43.115Z,99110.53
2024-02-11T12:27:18.305Z,99119.94
2024-02-11T12:29:57.879Z,99109.94
2024-02-11T12:32:26.462Z,99121.25
2024-02-11T12:34:57.536Z,99119.31
2024-02-11T12:37:29.520Z,99120.94
2024-02-11T12:39:57.715Z,99122.53
2024-02-11T12:42:24.222Z,99119.22
2024-02-11T12:44:50.782Z,99113.19
2024-02-11T12:47:17.364Z,99126.72
2024-02-11T12:49:43.894Z,99132.34
2024-02-11T12:52:12.566Z,99133.13
2024-02-11T12:54:39.870Z,99126.28
2024-02-11T12:57:06.535Z,99132.81
2024-02-11T12:59:33.121Z,99130.41
2024-02-11T13:01:59.720Z,99141.75
2024-02-11T13:04:26.835Z,99139.03
2024-02-11T13:06:53.541Z,99146.06
2024-02-11T13:09:20.038Z,99134.72
2024-02-11T13:11:46.550Z,99143.34
2024-02-11T13:14:13.481Z,99142.25
2024-02-11T13:16:40.027Z,99151.16
2024-02-11T13:19:07.514Z,99150.84
2024-02-11T13:21:34.370Z,99155.16
2024-02-11T13:24:00.872Z,99162.19
2024-02-11T13:26:28.216Z,99152.97
2024-02-11T13:28:54.917Z,99145.44
2024-02-11T13:31:26.372Z,99150.03
2024-02-11T13:33:54.671Z,99143.34
2024-02-11T13:36:21.324Z,99146.56
2024-02-11T13:38:47.782Z,99145.44
2024-02-11T13:41:14.401Z,99152.75
2024-02-11T13:43:41.027Z,99155.78
2024-02-11T13:46:13.586Z,99151.97
2024-02-11T13:48:44.454Z,99166.00
2024-02-11T13:51:11.739Z,99163.56
2024-02-11T13:53:41.164Z,99165.19
2024-02-11T13:56:08.181Z,99160.56
2024-02-11T13:58:35.712Z,99167.59
2024-02-11T14:01:02.547Z,99170.59
2024-02-11T14:03:29.071Z,99175.72
2024-02-11T14:05:56.165Z,99175.09
2024-02-11T14:08:22.885Z,99169.88
2024-02-11T14:10:49.465Z,99172.28
2024-02-11T14:13:17.616Z,99176.59
2024-02-11T14:15:44.576Z,99171.69
2024-02-11T14:18:12.459Z,99180.28
2024-02-11T14:20:39.287Z,99183.50
2024-02-11T14:23:05.937Z,99186.69
2024-02-11T14:25:32.886Z,99185.59
2024-02-11T14:27:59.425Z,99179.97
2024-02-11T14:30:27.858Z,99182.41
2024-02-11T14:32:56.632Z,99194.81
2024-02-11T14:35:23.480Z,99191.00
2024-02-11T14:37:50.193Z,99200.25
2024-02-11T14:40:18.390Z,99201.84
2024-02-11T14:42:48.293Z,99202.63
2024-02-11T14:45:15.891Z,99203.72
2024-02-11T14:47:43.934Z,99215.06
2024-02-11T14:50:11.186Z,99214.78
2024-02-11T14:52:38.094Z,99220.47
2024-02-11T14:55:06.133Z,99226.50
2024-02-11T14:57:33.893Z,99222.69
2024-02-11T15:00:00.337Z,99233.84
2024-02-11T15:02:29.787Z,99220.59
2024-02-11T15:04:56.927Z,99224.09
2024-02-11T15:07:23.685Z,99238.75
2024-02-11T15:09:54.600Z,99227.91
2024-02-11T15:12:21.145Z,99234.13
2024-02-11T15:14:48.235Z,99234.94
2024-02-11T15:17:17.601Z,99233.34
2024-02-11T15:19:47.214Z,99239.84
2024-02-11T15:22:15.245Z,99245.56
2024-02-11T15:24:43.314Z,99248.25
2024-02-11T15:27:09.809Z,99255.59
2024-02-11T15:29:36.416Z,99263.22
2024-02-11T15:32:04.030Z,99258.41
2024-02-11T15:34:31.007Z,99259.03
2024-02-11T15:36:57.838Z,99265.03
2024-02-11T15:39:25.137Z,99262.63
2024-02-11T15:41:55.489Z,99262.63
2024-02-11T15:44:22.813Z,99263.53
2024-02-11T15:46:52.850Z,99262.44
2024-02-11T15:49:19.432Z,99270.53
2024-02-11T15:51:49.302Z,99274.34
2024-02-11T15:54:16.322Z,99274.69
2024-02-11T15:56:43.509Z,99276.56
2024-02-11T15:59:10.612Z,99277.66
2024-02-11T16:01:37.315Z,99287.72
2024-02-11T16:04:05.693Z,99281.47
2024-02-11T16:06:33.238Z,99285.28
2024-02-11T16:08:59.944Z,99287.19
2024-02-11T16:11:27.244Z,99290.69
2024-02-11T16:13:53.908Z,99292.91
2024-02-11T16:16:20.457Z,99290.50
2024-02-11T16:18:47.143Z,99290.78
2024-02-11T16:21:15.203Z,99294.00
2024-02-11T16:23:42.237Z,99299.41
2024-02-11T16:26:16.934Z,99296.72
2024-02-11T16:28:44.582Z,99288.91
2024-02-11T16:31:14.731Z,99297.31
2024-02-11T16:33:41.591Z,99301.94
2024-02-11T16:36:09.880Z,99306.53
2024-02-11T16:38:36.778Z,99304.94
2024-02-11T16:41:03.445Z,99304.94
2024-02-11T16:43:29.898Z,99313.03
2024-02-11T16:45:56.414Z,99310.34
2024-02-11T16:48:24.185Z,99311.44
2024-02-11T16:50:51.190Z,99326.06
2024-02-11T16:53:17.904Z,99327.16
2024-02-11T16:55:44.757Z,99319.06
2024-02-11T16:58:11.656Z,99327.75
2024-02-11T17:00:38.298Z,99336.97
2024-02-11T17:03:05.847Z,99328.88
2024-02-11T17:05:32.669Z,99336.97
2024-02-11T17:07:59.302Z,99338.41
2024-02-11T17:10:26.176Z,99348.41
2024-02-11T17:12:52.707Z,99348.41
2024-02-11T17:15:19.194Z,99353.03
2024-02-11T17:17:45.737Z,99350.59
2024-02-11T17:20:17.390Z,99361.72
2024-02-11T17:22:44.939Z,99362.00
2024-02-11T17:25:11.640Z,99366.31
2024-02-11T17:27:39.065Z,99373.66
2024-02-11T17:30:07.595Z,99370.13
2024-02-11T17:32:42.682Z,99375.53
2024-02-11T17:35:16.242Z,99372.06
2024-02-11T17:37:43.071Z,99376.66
2024-02-11T17:40:11.543Z,99380.44
2024-02-11T17:42:39.968Z,99381.53
2024-02-11T17:45:13.643Z,99384.84
2024-02-11T17:47:43.582Z,99388.66
2024-02-11T17:50:15.941Z,99397.88
2024-02-11T17:52:43.120Z,99398.44
2024-02-11T17:55:10.613Z,99402.25
2024-02-11T17:57:47.357Z,99409.88
2024-02-11T18:00:19.055Z,99401.56
2024-02-11T18:02:45.688Z,99400.22
2024-02-11T18:05:13.738Z,99411.03
2024-02-11T18:07:44.553Z,99401.31
2024-02-11T18:10:12.818Z,99404.63
2024-02-11T18:12:44.489Z,99418.13
2024-02-11T18:15:13.401Z,99412.72
2024-02-11T18:17:42.100Z,99416.56
2024-02-11T18:20:09.340Z,99417.66
2024-02-11T18:22:36.551Z,99414.94
2024-02-11T18:25:03.112Z,99422.03
2024-02-11T18:27:29.605Z,99425.84
2024-02-11T18:29:56.066Z,99426.13
2024-02-11T18:32:22.896Z,99421.81
2024-02-11T18:34:50.667Z,99426.72
2024-02-11T18:37:20.442Z,99434.03
2024-02-11T18:39:48.614Z,99434.31
2024-02-11T18:42:19.083Z,99447.03
2024-02-11T18:44:46.595Z,99447.63
2024-02-11T18:47:16.455Z,99444.41
2024-02-11T18:49:43.134Z,99450.41
2024-02-11T18:52:09.947Z,99454.19
2024-02-11T18:54:40.343Z,99465.00
2024-02-11T18:57:14.255Z,99454.19
2024-02-11T18:59:45.460Z,99465.00
2024-02-11T19:02:13.177Z,99472.03
2024-02-11T19:04:40.306Z,99464.19
2024-02-11T19:07:07.354Z,99466.38
2024-02-11T19:09:40.856Z,99469.38
2024-02-11T19:12:09.649Z,99477.50
2024-02-11T19:14:36.099Z,99472.66
2024-02-11T19:17:04.462Z,99479.16
2024-02-11T19:19:31.077Z,99488.38
2024-02-11T19:22:04.331Z,99484.06
2024-02-11T19:24:39.386Z,99485.94
2024-02-11T19:27:05.892Z,99488.94
2024-02-11T19:29:33.069Z,99482.47
2024-02-11T19:31:59.523Z,99487.88
2024-02-11T19:34:25.984Z,99497.56
2024-02-11T19:36:52.424Z,99491.34
2024-02-11T19:39:18.992Z,99497.56
2024-02-11T19:41:45.920Z,99501.38
2024-02-11T19:44:12.526Z,99501.38
2024-02-11T19:46:40.408Z,99504.34
2024-02-11T19:49:10.287Z,99511.38
2024-02-11T19:51:36.823Z,99515.97
2024-02-11T19:54:04.016Z,99516.78
2024-02-11T19:56:30.615Z,99521.91
2024-02-11T19:58:57.947Z,99529.19
2024-02-11T20:01:25.793Z,99521.38
2024-02-11T20:03:52.261Z,99526.50
2024-02-11T20:06:18.864Z,99525.69
2024-02-11T20:08:47.895Z,99525.41
2024-02-11T20:11:15.650Z,99528.41
2024-02-11T20:13:42.153Z,99542.19
2024-02-11T20:16:13.910Z,99536.00
2024-02-11T20:18:43.366Z,99552.22
2024-02-11T20:21:10.668Z,99541.16
2024-02-11T20:23:38.251Z,99547.38
2024-02-11T20:26:05.588Z,99553.88
2024-02-11T20:28:34.143Z,99554.41
2024-02-11T20:31:00.889Z,99556.00
2024-02-11T20:33:27.587Z,99550.59
2024-02-11T20:35:55.202Z,99559.81
2024-02-11T20:38:23.243Z,99560.31
2024-02-11T20:40:54.391Z,99556.00
2024-02-11T20:43:21.781Z,99561.41
2024-02-11T20:45:50.549Z,99562.00
2024-02-11T20:48:19.056Z,99571.19
2024-02-11T20:50:45.781Z,99573.59
2024-02-11T20:53:12.371Z,99573.59
2024-02-11T20:55:39.029Z,99578.19
2024-02-11T20:58:05.902Z,99578.19
2024-02-11T21:00:36.312Z,99584.41
2024-02-11T21:03:08.987Z,99585.22
2024-02-11T21:05:36.802Z,99584.69
2024-02-11T21:08:04.430Z,99591.19
2024-02-11T21:10:34.031Z,99586.88
2024-02-11T21:13:01.205Z,99594.16
2024-02-11T21:15:27.813Z,99592.03
2024-02-11T21:17:57.387Z,99600.97
2024-02-11T21:20:29.606Z,99600.97
2024-02-11T21:22:56.533Z,99598.53
2024-02-11T21:25:24.312Z,99609.66
2024-02-11T21:27:57.600Z,99602.34
2024-02-11T21:30:26.424Z,99613.97
2024-02-11T21:32:53.224Z,99611.53
2024-02-11T21:35:20.433Z,99616.41
2024-02-11T21:37:49.004Z,99618.28
2024-02-11T21:40:15.901Z,99618.88
2024-02-11T21:42:43.375Z,99625.34
2024-02-11T21:45:11.361Z,99622.44
2024-02-11T21:47:43.191Z,99630.81
2024-02-11T21:50:13.781Z,99622.75
2024-02-11T21:52:45.852Z,99627.94
2024-02-11T21:55:13.865Z,99639.56
2024-02-11T21:57:43.846Z,99641.22
2024-02-11T22:00:12.159Z,99648.00
2024-02-11T22:02:40.488Z,99655.59
2024-02-11T22:05:08.271Z,99652.06
2024-02-11T22:07:39.526Z,99650.47
2024-02-11T22:10:10.578Z,99653.97
2024-02-11T22:12:38.242Z,99654.78
2024-02-11T22:15:07.885Z,99659.09
2024-02-11T22:17:35.852Z,99663.41
2024-02-11T22:20:02.908Z,99655.81
2024-02-11T22:22:29.432Z,99660.13
2024-02-11T22:24:57.064Z,99663.13
2024-02-11T22:27:23.626Z,99655.81
2024-02-11T22:29:51.296Z,99667.16
2024-02-11T22:32:17.781Z,99669.84
2024-02-11T22:34:44.618Z,99665.25
2024-02-11T22:37:13.351Z,99666.06
2024-02-11T22:39:40.082Z,99679.28
2024-02-11T22:42:09.138Z,99676.28
2024-02-11T22:44:36.344Z,99683.31
2024-02-11T22:47:05.902Z,99672.50
2024-02-11T22:49:32.345Z,99677.13
2024-02-11T22:51:59.175Z,99679.00
2024-02-11T22:54:25.953Z,99681.69
2024-02-11T22:56:53.133Z,99672.50
2024-02-11T22:59:19.652Z,99677.13
2024-02-11T23:01:46.173Z,99683.03
2024-02-11T23:04:13.959Z,99688.44
2024-02-11T23:06:42.600Z,99694.94
2024-02-11T23:09:09.535Z,99699.53
2024-02-11T23:11:36.350Z,99708.72
2024-02-11T23:14:03.815Z,99700.09
2024-02-11T23:16:33.309Z,99703.59
2024-02-11T23:19:00.551Z,99700.66
2024-02-11T23:21:27.440Z,99697.41
2024-02-11T23:23:54.660Z,99700.16
2024-02-11T23:26:21.202Z,99701.53
2024-02-11T23:28:47.782Z,99706.94
2024-02-11T23:31:14.229Z,99707.50
2024-02-11T23:33:42.557Z,99707.25
2024-02-11T23:36:14.359Z,99714.81
2024-02-11T23:38:44.038Z,99715.38
2024-02-11T23:41:10.658Z,99719.75
2024-02-11T23:43:37.111Z,99721.94
2024-02-11T23:46:03.874Z,99725.44
2024-02-11T23:48:30.458Z,99726.81
2024-02-11T23:51:00.696Z,99729.00
2024-02-11T23:53:30.307Z,99731.16
2024-02-11T23:55:58.949Z,99729.03
2024-02-11T23:58:27.370Z,99732.28
